Ana Sayfa
METAR-TAF:

METAR-TAF

Havaalanları :

Rome State Airport

Rome, Oregon, Amerika Birleşik Devletleri

Enlem: 42-35-26N, Boylam: 117-51-52W, yükseklik: 1234 m

Güncel hava durumu gözlemi

Rapor saat 18:52 UTC de 51 dakika önce yapıldı.
Sakin rüzgar
Sıcaklık 1°C
Nem 59%
Basınç 1027 hPa

METAR: KREO 181852Z AUTO 00000KT 01/M06 A3032 RMK AO1 SLP292 T00111061

Saat: 12:43 (19:43 UTC)


TAF: eksik

4.000'den fazla havaalanı için hava durumu gözlemleri ve tahminleri (METAR ve TAF raporları).

Kullanılabilir istasyonlar harita üzerinde sarı ve kırmızı noktalarla gösterilir.

İstasyonun adını görmek için fareyi noktanın üzerinde gezdirin.

Sonrasında hava gözlem ve tahminlerini görmek için tıklayın.

Haritayı değiştirmek için: yaklaştırmak için siyah artı işaretli yeşil düğmeye ve uzaklaştırmak için de eksi işaretli düğmeye hızla tıklayın; bitişik haritalar için yeşil okları kullanın.


METAR-TAF: